createdAt,value
2022-10-07T00:03:04.459Z,12.06
2022-10-07T00:07:06.068Z,12.08
2022-10-07T00:11:13.534Z,11.99
2022-10-07T00:15:15.444Z,12.08
2022-10-07T00:19:17.026Z,12.01
2022-10-07T00:23:18.597Z,11.99
2022-10-07T00:27:20.191Z,12.03
2022-10-07T00:31:24.540Z,12.03
2022-10-07T00:35:26.095Z,12.04
2022-10-07T00:39:27.716Z,11.85
2022-10-07T00:43:31.869Z,11.85
2022-10-07T00:47:36.728Z,11.81
2022-10-07T00:51:39.404Z,11.75
2022-10-07T00:55:42.943Z,11.79
2022-10-07T00:59:44.979Z,11.72
2022-10-07T01:03:49.456Z,11.79
2022-10-07T01:07:55.917Z,11.88
2022-10-07T01:12:17.193Z,11.76
2022-10-07T01:16:37.883Z,11.69
2022-10-07T01:21:00.504Z,11.63
2022-10-07T01:25:23.340Z,11.69
2022-10-07T01:29:35.626Z,11.57
2022-10-07T01:33:40.414Z,11.63
2022-10-07T01:37:47.206Z,11.62
2022-10-07T01:41:50.573Z,11.65
2022-10-07T01:45:54.839Z,11.47
2022-10-07T01:49:56.451Z,11.19
2022-10-07T01:54:15.876Z,11.07
2022-10-07T01:58:53.323Z,11.12
2022-10-07T02:03:17.758Z,11.02
2022-10-07T02:07:53.648Z,10.93
2022-10-07T02:12:04.939Z,10.87
2022-10-07T02:16:23.376Z,10.91
2022-10-07T02:20:31.956Z,10.99
2022-10-07T02:24:35.905Z,10.84
2022-10-07T02:28:43.583Z,10.69
2022-10-07T02:32:58.599Z,10.68
2022-10-07T02:37:08.279Z,10.62
2022-10-07T02:41:31.336Z,10.56
2022-10-07T02:45:51.636Z,10.38
2022-10-07T02:49:53.843Z,10.32
2022-10-07T02:53:57.704Z,10.42
2022-10-07T02:58:03.743Z,10.36
2022-10-07T03:02:11.054Z,10.35
2022-10-07T03:06:13.864Z,10.22
2022-10-07T03:10:16.184Z,10.27
2022-10-07T03:14:18.954Z,10.35
2022-10-07T03:18:27.291Z,10.24
2022-10-07T03:22:47.139Z,10.32
2022-10-07T03:26:51.748Z,10.21
2022-10-07T03:30:54.677Z,10.27
2022-10-07T03:34:56.414Z,9.98
2022-10-07T03:38:58.477Z,10.00
2022-10-07T03:43:00.471Z,9.95
2022-10-07T03:47:06.664Z,9.93
2022-10-07T03:51:11.494Z,9.94
2022-10-07T03:55:14.852Z,9.88
2022-10-07T03:59:16.939Z,9.97
2022-10-07T04:03:20.266Z,9.85
2022-10-07T04:07:23.720Z,9.87
2022-10-07T04:11:26.338Z,9.86
2022-10-07T04:15:30.576Z,9.84
2022-10-07T04:19:32.386Z,9.69
2022-10-07T04:23:36.891Z,9.68
2022-10-07T04:27:51.635Z,9.78
2022-10-07T04:31:58.133Z,9.69
2022-10-07T04:36:04.744Z,9.68
2022-10-07T04:40:07.597Z,9.72
2022-10-07T04:44:10.662Z,9.72
2022-10-07T04:48:21.931Z,9.60
2022-10-07T04:52:26.625Z,9.61
2022-10-07T04:56:31.134Z,9.56
2022-10-07T05:00:33.313Z,9.65
2022-10-07T05:04:34.837Z,9.61
2022-10-07T05:08:37.574Z,9.78
2022-10-07T05:12:41.523Z,9.60
2022-10-07T05:16:44.404Z,9.55
2022-10-07T05:20:48.753Z,9.60
2022-10-07T05:24:51.284Z,9.54
2022-10-07T05:28:53.764Z,9.62
2022-10-07T05:33:01.493Z,9.64
2022-10-07T05:37:03.014Z,9.62
2022-10-07T05:41:07.079Z,9.63
2022-10-07T05:45:11.497Z,9.83
2022-10-07T05:49:13.781Z,9.66
2022-10-07T05:53:16.081Z,9.82
2022-10-07T05:57:17.836Z,9.94
2022-10-07T06:01:21.887Z,9.96
2022-10-07T06:05:24.956Z,10.12
2022-10-07T06:09:45.256Z,9.94
2022-10-07T06:13:54.095Z,10.16
2022-10-07T06:17:55.664Z,10.19
2022-10-07T06:21:57.730Z,10.38
2022-10-07T06:26:08.439Z,10.48
2022-10-07T06:30:10.517Z,10.52
2022-10-07T06:34:12.009Z,10.63
2022-10-07T06:38:13.858Z,10.71
2022-10-07T06:42:15.361Z,10.79
2022-10-07T06:46:51.878Z,10.82
2022-10-07T06:50:58.442Z,11.01
2022-10-07T06:55:02.289Z,11.18
2022-10-07T06:59:06.928Z,11.25
2022-10-07T07:03:20.331Z,11.55
2022-10-07T07:07:24.446Z,11.65
2022-10-07T07:11:41.712Z,11.93
2022-10-07T07:15:59.181Z,11.81
2022-10-07T07:20:03.820Z,11.99
2022-10-07T07:24:06.375Z,12.52
2022-10-07T07:28:08.941Z,12.60
2022-10-07T07:32:10.572Z,12.82
2022-10-07T07:36:16.364Z,13.08
2022-10-07T07:40:21.989Z,13.23
2022-10-07T07:44:24.943Z,13.30
2022-10-07T07:48:30.891Z,13.38
2022-10-07T07:52:33.614Z,13.56
2022-10-07T07:56:37.268Z,13.67
2022-10-07T08:00:38.804Z,13.93
2022-10-07T08:04:41.223Z,14.18
2022-10-07T08:08:43.802Z,14.31
2022-10-07T08:12:46.475Z,14.23
2022-10-07T08:16:50.037Z,14.12
2022-10-07T08:21:02.809Z,14.59
2022-10-07T08:25:06.055Z,14.81
2022-10-07T08:29:09.706Z,14.78
2022-10-07T08:33:12.057Z,14.96
2022-10-07T08:37:13.469Z,15.13
2022-10-07T08:41:36.449Z,15.58
2022-10-07T08:45:37.863Z,15.72
2022-10-07T08:49:49.669Z,15.41
2022-10-07T08:53:54.752Z,15.61
2022-10-07T08:58:23.059Z,15.42
2022-10-07T09:02:34.970Z,15.63
2022-10-07T09:06:52.513Z,15.79
2022-10-07T09:11:00.882Z,15.79
2022-10-07T09:15:06.181Z,16.04
2022-10-07T09:19:17.491Z,16.28
2022-10-07T09:23:28.946Z,16.13
2022-10-07T09:27:30.359Z,15.99
2022-10-07T09:31:32.608Z,16.30
2022-10-07T09:35:34.194Z,16.53
2022-10-07T09:39:35.601Z,16.00
2022-10-07T09:43:43.024Z,16.65
2022-10-07T09:47:44.847Z,16.70
2022-10-07T09:52:02.138Z,17.08
2022-10-07T09:56:03.614Z,17.44
2022-10-07T10:00:24.283Z,17.49
2022-10-07T10:04:36.332Z,17.31
2022-10-07T10:08:40.948Z,17.45
2022-10-07T10:12:47.119Z,17.52
2022-10-07T10:16:48.788Z,17.63
2022-10-07T10:20:50.312Z,17.52
2022-10-07T10:25:11.096Z,17.93
2022-10-07T10:29:23.096Z,17.92
2022-10-07T10:33:33.588Z,17.90
2022-10-07T10:37:40.930Z,17.90
2022-10-07T10:42:05.374Z,18.06
2022-10-07T10:46:37.337Z,18.17
2022-10-07T10:50:56.863Z,18.16
2022-10-07T10:55:07.058Z,18.27
2022-10-07T10:59:27.245Z,18.36
2022-10-07T11:03:32.664Z,18.31
2022-10-07T11:07:39.273Z,18.23
2022-10-07T11:11:42.461Z,18.21
2022-10-07T11:15:49.439Z,18.21
2022-10-07T11:20:20.330Z,18.46
2022-10-07T11:24:44.681Z,18.44
2022-10-07T11:28:46.841Z,18.17
2022-10-07T11:32:57.467Z,18.41
2022-10-07T11:37:08.199Z,18.35
2022-10-07T11:41:14.314Z,18.49
2022-10-07T11:45:24.582Z,18.54
2022-10-07T11:49:37.588Z,18.58
2022-10-07T11:53:39.946Z,18.86
2022-10-07T11:57:43.948Z,18.82
2022-10-07T12:01:52.616Z,18.86
2022-10-07T12:05:57.640Z,18.56
2022-10-07T12:09:59.038Z,18.31
2022-10-07T12:14:30.298Z,18.43
2022-10-07T12:18:31.741Z,18.64
2022-10-07T12:22:40.480Z,18.49
2022-10-07T12:26:45.914Z,18.85
2022-10-07T12:31:02.064Z,18.93
2022-10-07T12:35:34.812Z,18.88
2022-10-07T12:39:36.982Z,18.76
2022-10-07T12:43:48.047Z,18.80
2022-10-07T12:47:54.904Z,18.88
2022-10-07T12:52:00.024Z,19.01
2022-10-07T12:56:01.845Z,18.65
2022-10-07T13:00:12.188Z,18.79
2022-10-07T13:05:10.799Z,18.91
2022-10-07T13:09:41.132Z,19.06
2022-10-07T13:13:59.000Z,18.72
2022-10-07T13:18:16.803Z,19.19
2022-10-07T13:22:19.365Z,19.04
2022-10-07T13:26:22.623Z,18.79
2022-10-07T13:30:34.768Z,18.60
2022-10-07T13:34:36.586Z,18.43
2022-10-07T13:38:37.984Z,18.36
2022-10-07T13:42:39.428Z,18.43
2022-10-07T13:46:54.237Z,18.41
2022-10-07T13:50:58.539Z,18.61
2022-10-07T13:55:00.169Z,18.42
2022-10-07T13:59:03.766Z,18.56
2022-10-07T14:03:13.688Z,18.41
2022-10-07T14:07:19.980Z,18.41
2022-10-07T14:11:22.547Z,18.48
2022-10-07T14:15:27.044Z,18.85
2022-10-07T14:19:32.789Z,18.52
2022-10-07T14:23:36.349Z,18.71
2022-10-07T14:27:52.504Z,18.75
2022-10-07T14:32:39.617Z,18.78
2022-10-07T14:37:19.352Z,18.49
2022-10-07T14:41:23.486Z,18.63
2022-10-07T14:45:25.013Z,17.95
2022-10-07T14:49:28.237Z,18.10
2022-10-07T14:53:29.946Z,18.11
2022-10-07T14:57:31.453Z,17.72
2022-10-07T15:01:32.946Z,18.06
2022-10-07T15:05:34.496Z,18.18
2022-10-07T15:09:36.014Z,18.18
2022-10-07T15:13:37.462Z,18.14
2022-10-07T15:17:40.200Z,18.13
2022-10-07T15:21:41.615Z,17.74
2022-10-07T15:25:43.804Z,17.88
2022-10-07T15:29:45.796Z,17.70
2022-10-07T15:33:47.637Z,17.72
2022-10-07T15:37:49.393Z,17.80
2022-10-07T15:41:50.840Z,17.55
2022-10-07T15:45:52.799Z,17.41
2022-10-07T15:49:54.235Z,17.51
2022-10-07T15:53:55.674Z,17.22
2022-10-07T15:57:57.128Z,17.42
2022-10-07T16:01:58.747Z,17.06
2022-10-07T16:06:02.507Z,17.05
2022-10-07T16:10:04.444Z,16.93
2022-10-07T16:14:05.896Z,16.65
2022-10-07T16:18:07.524Z,16.73
2022-10-07T16:22:09.504Z,16.70
2022-10-07T16:26:19.453Z,16.50
2022-10-07T16:30:39.521Z,16.40
2022-10-07T16:34:43.360Z,16.25
2022-10-07T16:38:45.741Z,16.23
2022-10-07T16:42:48.041Z,16.03
2022-10-07T16:46:49.576Z,16.03
2022-10-07T16:50:51.038Z,16.16
2022-10-07T16:54:52.482Z,16.04
2022-10-07T16:58:59.128Z,16.15
2022-10-07T17:03:00.520Z,16.14
2022-10-07T17:07:02.700Z,16.12
2022-10-07T17:11:04.117Z,16.11
2022-10-07T17:15:05.760Z,16.13
2022-10-07T17:19:07.276Z,16.09
2022-10-07T17:23:08.884Z,16.03
2022-10-07T17:27:11.230Z,16.28
2022-10-07T17:31:13.722Z,16.28
2022-10-07T17:35:15.375Z,16.17
2022-10-07T17:39:18.890Z,16.16
2022-10-07T17:43:20.311Z,16.10
2022-10-07T17:47:21.728Z,16.08
2022-10-07T17:51:27.761Z,16.00
2022-10-07T17:55:29.169Z,15.86
2022-10-07T17:59:30.681Z,15.85
2022-10-07T18:03:32.166Z,15.93
2022-10-07T18:07:33.608Z,15.71
2022-10-07T18:11:53.930Z,15.80
2022-10-07T18:15:59.887Z,15.70
2022-10-07T18:20:01.605Z,15.65
2022-10-07T18:24:07.216Z,15.56
2022-10-07T18:28:08.705Z,15.69
2022-10-07T18:32:10.327Z,15.59
2022-10-07T18:36:18.192Z,15.64
2022-10-07T18:40:19.632Z,15.45
2022-10-07T18:44:21.395Z,15.25
2022-10-07T18:48:22.784Z,15.32
2022-10-07T18:52:24.760Z,15.27
2022-10-07T18:56:26.226Z,14.99
2022-10-07T19:00:27.698Z,14.98
2022-10-07T19:04:30.555Z,14.95
2022-10-07T19:08:32.195Z,14.79
2022-10-07T19:12:52.290Z,14.72
2022-10-07T19:16:54.203Z,14.86
2022-10-07T19:20:59.856Z,14.86
2022-10-07T19:25:19.973Z,14.73
2022-10-07T19:29:21.336Z,14.64
2022-10-07T19:33:23.965Z,14.66
2022-10-07T19:37:25.778Z,14.61
2022-10-07T19:41:30.074Z,14.46
2022-10-07T19:45:34.084Z,14.63
2022-10-07T19:49:38.382Z,14.42
2022-10-07T19:53:46.654Z,14.44
2022-10-07T19:57:49.853Z,14.26
2022-10-07T20:01:51.809Z,14.57
2022-10-07T20:05:53.723Z,14.53
2022-10-07T20:09:55.123Z,14.39
2022-10-07T20:13:56.617Z,14.49
2022-10-07T20:17:58.051Z,14.44
2022-10-07T20:22:01.123Z,14.39
2022-10-07T20:26:11.452Z,14.53
2022-10-07T20:30:17.887Z,14.41
2022-10-07T20:34:20.083Z,14.58
2022-10-07T20:38:21.496Z,14.54
2022-10-07T20:42:25.339Z,14.63
2022-10-07T20:46:27.044Z,14.53
2022-10-07T20:50:28.483Z,14.44
2022-10-07T20:54:31.064Z,14.33
2022-10-07T20:58:32.878Z,14.33
2022-10-07T21:02:34.287Z,14.37
2022-10-07T21:06:36.069Z,14.32
2022-10-07T21:10:37.465Z,14.46
2022-10-07T21:14:39.358Z,14.41
2022-10-07T21:18:40.746Z,14.22
2022-10-07T21:22:42.241Z,14.16
2022-10-07T21:26:43.843Z,14.23
2022-10-07T21:30:54.774Z,14.12
2022-10-07T21:34:57.297Z,14.07
2022-10-07T21:38:59.176Z,14.24
2022-10-07T21:43:00.665Z,14.07
2022-10-07T21:47:02.226Z,14.19
2022-10-07T21:51:09.323Z,13.91
2022-10-07T21:55:11.235Z,13.94
2022-10-07T21:59:13.541Z,13.93
2022-10-07T22:03:16.516Z,13.89
2022-10-07T22:07:36.698Z,13.87
2022-10-07T22:11:38.528Z,14.01
2022-10-07T22:15:39.968Z,13.94
2022-10-07T22:19:41.456Z,13.96
2022-10-07T22:23:43.385Z,13.92
2022-10-07T22:27:44.823Z,14.06
2022-10-07T22:31:47.025Z,13.99
2022-10-07T22:35:48.461Z,14.01
2022-10-07T22:39:49.905Z,14.27
2022-10-07T22:43:52.795Z,14.31
2022-10-07T22:47:54.247Z,14.31
2022-10-07T22:51:55.684Z,14.53
2022-10-07T22:56:06.185Z,14.38
2022-10-07T23:00:08.202Z,14.47
2022-10-07T23:04:09.665Z,14.45
2022-10-07T23:08:11.186Z,14.44
2022-10-07T23:12:12.629Z,14.40
2022-10-07T23:16:16.765Z,14.33
2022-10-07T23:20:19.092Z,14.17
2022-10-07T23:24:20.600Z,14.20
2022-10-07T23:28:24.364Z,14.21
2022-10-07T23:32:25.832Z,14.25
2022-10-07T23:36:27.921Z,14.24
2022-10-07T23:40:29.433Z,14.19
2022-10-07T23:44:30.864Z,14.24
2022-10-07T23:48:34.510Z,14.22
2022-10-07T23:52:35.920Z,14.26
2022-10-07T23:56:37.315Z,14.26
